Time;durP1;ratioP1;P1;durP2;ratioP2;P2;SDS_P1;SDS_P2;PMS_P1;PMS_P2;Temp;Humidity;BMP_temperature;BMP_pressure;BME280_temperature;BME280_humidity;BME280_pressure;Samples;Min_cycle;Max_cycle;Signal;HPM_P1;HPM_P2
2021/05/18 00:01:42;;;;;;;5.32;2.95;;;11.10;99.90;;;;;;5003565;28;20045;-72
2021/05/18 00:04:09;;;;;;;5.55;3.10;;;11.00;99.90;;;;;;5019317;28;20482;-71
2021/05/18 00:06:36;;;;;;;4.78;2.90;;;11.00;99.90;;;;;;5005148;28;20064;-71
2021/05/18 00:11:50;;;;;;;4.03;2.70;;;10.90;99.90;;;;;;5002703;28;20049;-71
2021/05/18 00:14:21;;;;;;;5.40;2.80;;;10.90;99.90;;;;;;5007607;28;20053;-71
2021/05/18 00:16:51;;;;;;;6.07;2.70;;;10.80;99.90;;;;;;5006056;28;20045;-71
2021/05/18 00:19:18;;;;;;;5.07;2.83;;;10.80;99.90;;;;;;4996769;28;20053;-71
2021/05/18 00:21:46;;;;;;;4.32;2.45;;;10.70;99.90;;;;;;4999833;28;20061;-71
2021/05/18 00:24:14;;;;;;;5.97;3.05;;;10.70;99.90;;;;;;5007973;28;20404;-72
2021/05/18 00:26:42;;;;;;;5.50;2.95;;;10.70;99.90;;;;;;5000299;28;20046;-71
2021/05/18 00:29:09;;;;;;;4.57;2.55;;;10.60;99.90;;;;;;5008430;28;20081;-71
2021/05/18 00:31:36;;;;;;;5.65;3.00;;;10.60;99.90;;;;;;5001161;28;20406;-71
2021/05/18 00:34:41;;;;;;;6.70;3.42;;;10.50;99.90;;;;;;5006835;28;20456;-71
2021/05/18 00:37:08;;;;;;;4.78;2.92;;;10.50;99.90;;;;;;5001672;28;20048;-71
2021/05/18 00:39:35;;;;;;;4.45;2.70;;;10.50;99.90;;;;;;4998084;28;20097;-72
2021/05/18 00:42:02;;;;;;;6.82;3.40;;;10.40;99.90;;;;;;4999370;28;20038;-71
2021/05/18 00:44:30;;;;;;;4.45;2.70;;;10.40;99.90;;;;;;5007953;28;20365;-71
2021/05/18 00:46:57;;;;;;;4.93;3.20;;;10.40;99.90;;;;;;5017469;28;20069;-71
2021/05/18 00:49:24;;;;;;;5.00;2.85;;;10.40;99.90;;;;;;5007573;28;20061;-71
2021/05/18 00:51:51;;;;;;;4.63;2.70;;;10.30;99.90;;;;;;5004093;28;20402;-72
2021/05/18 00:54:25;;;;;;;5.30;2.95;;;10.30;99.90;;;;;;5000452;28;20041;-71
2021/05/18 00:59:38;;;;;;;5.30;3.28;;;10.30;99.90;;;;;;5000357;28;20049;-71
2021/05/18 01:02:05;;;;;;;5.05;3.13;;;10.30;99.90;;;;;;5005044;28;20045;-72
2021/05/18 01:04:32;;;;;;;5.53;3.33;;;10.30;99.90;;;;;;5004727;28;20045;-71
2021/05/18 01:07:02;;;;;;;5.40;3.17;;;10.30;99.90;;;;;;4997093;28;20053;-72
2021/05/18 01:09:29;;;;;;;6.13;3.45;;;10.30;99.90;;;;;;4998398;28;20047;-71
2021/05/18 01:11:56;;;;;;;6.20;3.65;;;10.30;99.90;;;;;;5007476;28;20075;-72
2021/05/18 01:14:23;;;;;;;6.47;3.50;;;10.30;99.90;;;;;;5007946;28;20421;-72
2021/05/18 01:16:52;;;;;;;6.03;3.75;;;10.30;99.90;;;;;;5018005;28;20069;-71
2021/05/18 01:19:25;;;;;;;6.60;3.13;;;10.30;99.90;;;;;;4991850;28;20053;-71
2021/05/18 01:21:56;;;;;;;5.07;3.40;;;10.40;99.90;;;;;;5000277;28;20050;-71
2021/05/18 01:24:23;;;;;;;5.53;3.45;;;10.40;99.90;;;;;;5005444;28;20443;-71
2021/05/18 01:26:50;;;;;;;7.93;3.50;;;10.40;99.90;;;;;;5018442;28;20058;-72
2021/05/18 01:29:21;;;;;;;5.20;3.45;;;10.40;99.90;;;;;;5004951;28;20056;-71
2021/05/18 01:31:50;;;;;;;6.50;3.58;;;10.40;99.90;;;;;;5004262;28;20050;-71
2021/05/18 01:34:17;;;;;;;4.97;3.05;;;10.40;99.90;;;;;;5005276;28;20046;-71
2021/05/18 01:36:46;;;;;;;7.50;4.05;;;10.40;99.90;;;;;;5003075;28;20046;-71
2021/05/18 01:44:40;;;;;;;6.03;3.78;;;10.50;99.90;;;;;;5000972;28;20058;-71
2021/05/18 01:47:10;;;;;;;6.10;3.88;;;10.50;99.90;;;;;;5003294;28;20065;-72
2021/05/18 01:49:37;;;;;;;5.68;3.55;;;10.50;99.90;;;;;;5003816;28;20058;-71
2021/05/18 01:52:07;;;;;;;9.80;4.60;;;10.60;99.90;;;;;;5017020;28;20062;-71
2021/05/18 01:54:35;;;;;;;7.10;3.92;;;10.60;99.90;;;;;;5005764;28;20053;-71
2021/05/18 01:57:19;;;;;;;6.18;4.30;;;10.60;99.90;;;;;;5001408;28;20042;-72
2021/05/18 01:59:50;;;;;;;7.55;3.67;;;10.60;99.90;;;;;;5002538;28;20398;-71
2021/05/18 02:02:18;;;;;;;6.75;3.97;;;10.60;99.90;;;;;;4998648;28;20049;-71
2021/05/18 02:04:52;;;;;;;7.22;4.07;;;10.70;99.90;;;;;;5006910;28;20080;-72
2021/05/18 02:07:23;;;;;;;6.20;3.88;;;10.60;99.90;;;;;;5008129;28;20227;-72
2021/05/18 02:09:52;;;;;;;5.63;3.83;;;10.70;99.90;;;;;;5003177;28;20433;-71
2021/05/18 02:12:19;;;;;;;6.15;4.00;;;10.70;99.90;;;;;;5019454;28;20459;-71
2021/05/18 02:14:50;;;;;;;7.28;3.63;;;10.70;99.90;;;;;;5007527;28;20054;-71
2021/05/18 02:17:21;;;;;;;7.03;4.03;;;10.70;99.90;;;;;;5005986;28;20442;-71
2021/05/18 02:25:28;;;;;;;5.75;3.88;;;10.80;99.90;;;;;;5005526;28;20058;-71
2021/05/18 02:27:57;;;;;;;6.78;4.00;;;10.80;99.90;;;;;;5006891;28;20375;-72
2021/05/18 02:30:25;;;;;;;6.15;3.83;;;10.70;99.90;;;;;;5009379;28;20104;-72
2021/05/18 02:33:03;;;;;;;5.75;3.72;;;10.80;99.90;;;;;;5026541;28;20382;-72
2021/05/18 02:35:30;;;;;;;;;;;10.80;99.90;;;;;;5006264;28;20146;-71
2021/05/18 02:37:57;;;;;;;4.93;3.15;;;10.80;99.90;;;;;;5024736;28;19979;-71
2021/05/18 02:40:27;;;;;;;5.88;3.70;;;10.80;99.90;;;;;;5003399;28;20128;-71
2021/05/18 02:42:54;;;;;;;6.88;3.90;;;10.80;99.90;;;;;;5010052;28;20156;-72
2021/05/18 02:45:32;;;;;;;7.65;4.10;;;10.80;99.90;;;;;;5003972;28;20189;-71
2021/05/18 02:50:45;;;;;;;6.47;3.30;;;10.80;99.90;;;;;;5005161;28;19928;-72
2021/05/18 02:53:12;;;;;;;5.75;3.72;;;10.80;99.90;;;;;;5006398;28;20042;-71
2021/05/18 02:55:56;;;;;;;6.18;4.07;;;10.80;99.90;;;;;;5000462;28;20054;-71
2021/05/18 02:58:25;;;;;;;6.07;3.83;;;10.80;99.90;;;;;;5007044;28;20557;-72
2021/05/18 03:00:52;;;;;;;8.25;4.25;;;10.80;99.90;;;;;;5004444;28;20552;-71
2021/05/18 03:03:19;;;;;;;5.82;3.55;;;10.90;99.90;;;;;;5008877;28;20049;-71
2021/05/18 03:05:46;;;;;;;5.03;3.58;;;10.80;99.90;;;;;;5007265;28;20525;-71
2021/05/18 03:08:13;;;;;;;5.07;3.05;;;10.90;99.90;;;;;;5008970;28;20088;-73
2021/05/18 03:10:40;;;;;;;5.32;3.78;;;10.80;99.90;;;;;;5015923;28;20068;-72
2021/05/18 03:13:07;;;;;;;5.80;3.60;;;10.90;99.90;;;;;;5003970;28;20050;-71
2021/05/18 03:15:35;;;;;;;5.35;3.47;;;10.90;99.90;;;;;;5001291;28;20045;-72
2021/05/18 03:18:03;;;;;;;5.95;3.38;;;10.80;99.90;;;;;;4999532;28;20123;-72
2021/05/18 03:20:30;;;;;;;7.10;3.40;;;10.90;99.90;;;;;;5002610;28;20061;-71
2021/05/18 03:22:58;;;;;;;6.50;3.80;;;10.90;99.90;;;;;;5007049;28;20171;-71
2021/05/18 03:25:25;;;;;;;5.07;3.40;;;10.90;99.90;;;;;;5000650;28;20164;-71
2021/05/18 03:27:56;;;;;;;5.43;3.40;;;10.80;99.90;;;;;;5004312;28;20555;-71
2021/05/18 03:35:43;;;;;;;4.82;3.10;;;10.80;99.90;;;;;;5002111;28;20501;-71
2021/05/18 03:38:26;;;;;;;5.25;3.45;;;10.80;99.90;;;;;;5002838;28;20049;-71
2021/05/18 03:40:56;;;;;;;4.85;3.75;;;10.80;99.90;;;;;;5017455;28;20492;-71
2021/05/18 03:54:05;;;;;;;6.05;3.83;;;10.80;99.90;;;;;;5002461;28;20409;-71
2021/05/18 04:04:37;;;;;;;6.40;3.90;;;10.90;99.90;;;;;;5001082;28;20057;-72
2021/05/18 05:14:52;;;;;;;11.05;7.28;;;11.10;99.90;;;;;;4997001;28;20057;-72
2021/05/18 05:17:19;;;;;;;8.90;6.38;;;11.20;99.90;;;;;;5008869;28;20038;-71
2021/05/18 05:19:47;;;;;;;8.73;6.57;;;11.20;99.90;;;;;;4998093;28;20491;-71
2021/05/18 05:22:14;;;;;;;8.73;7.18;;;11.20;99.90;;;;;;5004768;28;20110;-72
2021/05/18 05:24:43;;;;;;;8.27;6.45;;;11.20;99.90;;;;;;5008170;28;20042;-71
2021/05/18 05:27:11;;;;;;;11.45;7.25;;;11.20;99.90;;;;;;5003387;28;20053;-71
2021/05/18 05:29:58;;;;;;;9.73;7.00;;;11.20;99.90;;;;;;5010835;28;20496;-71
2021/05/18 05:32:24;;;;;;;10.00;6.47;;;11.20;99.90;;;;;;5003577;28;20092;-71
2021/05/18 05:34:51;;;;;;;9.70;6.57;;;11.20;99.90;;;;;;5014317;28;20492;-71
2021/05/18 05:37:18;;;;;;;9.35;6.13;;;11.20;99.90;;;;;;4997131;28;20519;-71
2021/05/18 05:39:46;;;;;;;8.70;7.13;;;11.30;99.90;;;;;;5010218;28;20420;-71
2021/05/18 05:42:13;;;;;;;9.15;7.18;;;11.30;99.90;;;;;;5010638;28;20543;-72
2021/05/18 05:44:40;;;;;;;7.97;6.32;;;11.40;99.90;;;;;;5012940;28;20311;-71
2021/05/18 05:47:23;;;;;;;8.98;6.63;;;11.40;99.90;;;;;;5010396;28;20048;-71
2021/05/18 05:49:50;;;;;;;8.75;6.07;;;11.40;99.90;;;;;;5020866;28;20561;-71
2021/05/18 05:52:19;;;;;;;8.07;5.93;;;11.50;99.90;;;;;;5008291;28;20061;-71
2021/05/18 05:54:47;;;;;;;9.75;7.55;;;11.50;99.90;;;;;;5022888;28;20595;-72
2021/05/18 05:57:14;;;;;;;9.98;7.13;;;11.50;99.90;;;;;;5008264;28;20038;-72
2021/05/18 05:59:41;;;;;;;8.52;6.32;;;11.50;99.90;;;;;;5009256;28;20053;-71
2021/05/18 06:02:08;;;;;;;10.38;6.80;;;11.50;99.90;;;;;;5001725;28;20070;-71
2021/05/18 06:04:35;;;;;;;7.28;5.53;;;11.50;99.90;;;;;;5004453;28;20056;-72
2021/05/18 06:07:02;;;;;;;9.02;6.38;;;11.50;99.90;;;;;;5007326;28;20061;-71
2021/05/18 06:09:29;;;;;;;7.43;5.78;;;11.50;99.90;;;;;;5006274;28;20077;-71
2021/05/18 06:12:12;;;;;;;8.35;6.07;;;11.50;99.90;;;;;;5008614;28;20049;-71
2021/05/18 06:15:16;;;;;;;9.55;6.32;;;11.50;99.90;;;;;;5004137;28;20118;-71
2021/05/18 06:43:00;;;;;;;10.70;6.75;;;11.80;99.90;;;;;;4988461;28;20077;-71
2021/05/18 06:48:31;;;;;;;8.65;5.82;;;12.00;99.90;;;;;;4989681;28;20050;-71
2021/05/18 06:50:58;;;;;;;8.65;6.80;;;12.20;99.90;;;;;;4988545;28;20437;-71
2021/05/18 06:53:25;;;;;;;9.43;7.07;;;12.30;99.90;;;;;;4990765;28;20051;-71
2021/05/18 06:55:54;;;;;;;10.57;7.40;;;12.50;99.90;;;;;;4986063;28;20431;-71
2021/05/18 06:58:35;;;;;;;;;;;12.60;99.90;;;;;;4992953;28;20050;-71
2021/05/18 07:01:02;;;;;;;8.85;6.80;;;12.60;99.90;;;;;;4989125;28;20397;-72
2021/05/18 07:03:37;;;;;;;9.57;7.55;;;12.70;99.90;;;;;;4994864;28;20050;-71
2021/05/18 07:06:24;;;;;;;9.35;8.35;;;12.70;99.90;;;;;;5024032;28;20046;-72
2021/05/18 07:11:21;;;;;;;10.77;7.38;;;12.80;99.90;;;;;;4986311;28;20403;-72
2021/05/18 07:13:48;;;;;;;;;;;12.80;99.90;;;;;;4985390;28;20054;-72
2021/05/18 07:16:15;;;;;;;9.98;7.80;;;12.90;99.90;;;;;;4987614;28;19961;-71
2021/05/18 07:18:42;;;;;;;9.57;7.70;;;12.90;99.90;;;;;;4986546;28;20049;-72
2021/05/18 07:21:09;;;;;;;9.43;7.65;;;12.90;99.90;;;;;;5001627;28;20061;-72
2021/05/18 07:23:36;;;;;;;9.83;7.10;;;12.90;99.90;;;;;;4986709;28;20493;-72
2021/05/18 07:26:04;;;;;;;9.40;7.45;;;12.90;99.90;;;;;;4986840;28;20485;-71
2021/05/18 07:28:33;;;;;;;10.45;7.68;;;12.90;99.90;;;;;;4986522;28;20100;-71
2021/05/18 07:31:00;;;;;;;;;;;12.90;99.90;;;;;;4988067;28;20050;-71
2021/05/18 07:33:28;;;;;;;9.60;6.50;;;13.00;99.90;;;;;;4988016;28;19968;-72
2021/05/18 07:35:57;;;;;;;8.10;6.80;;;13.10;99.90;;;;;;4986227;28;20046;-71
2021/05/18 07:38:26;;;;;;;9.70;6.97;;;13.20;99.90;;;;;;5018938;28;20043;-72
2021/05/18 07:40:56;;;;;;;8.00;6.32;;;13.30;99.90;;;;;;4991486;28;20058;-72
2021/05/18 07:43:24;;;;;;;8.50;6.93;;;13.40;99.90;;;;;;5000144;28;20057;-72
2021/05/18 07:45:58;;;;;;;8.82;7.05;;;13.40;99.90;;;;;;4986174;28;20055;-71
2021/05/18 07:59:29;;;;;;;8.88;6.63;;;13.20;99.90;;;;;;4990067;28;20078;-71
2021/05/18 08:07:21;;;;;;;9.13;5.75;;;13.10;99.90;;;;;;4986070;28;20054;-71
2021/05/18 08:12:18;;;;;;;7.30;5.80;;;13.10;99.90;;;;;;4989885;28;20128;-71
2021/05/18 08:15:32;;;;;;;7.10;5.40;;;13.20;99.90;;;;;;4984435;28;20125;-71
2021/05/18 08:58:19;;;;;;;5.47;3.53;;;13.30;99.90;;;;;;4984512;28;20057;-71
2021/05/18 10:36:12;;;;;;;3.65;2.40;;;15.50;99.90;;;;;;4985401;28;20419;-72
2021/05/18 10:38:48;;;;;;;3.20;2.22;;;15.50;99.90;;;;;;4987231;28;20042;-71
2021/05/18 10:41:25;;;;;;;3.50;2.30;;;15.60;99.90;;;;;;4986499;28;20088;-72
2021/05/18 10:43:55;;;;;;;4.22;2.25;;;15.60;99.90;;;;;;4985740;28;20085;-71
2021/05/18 10:46:25;;;;;;;3.78;2.10;;;15.50;99.90;;;;;;4986392;28;20396;-71
2021/05/18 10:49:04;;;;;;;2.25;2.00;;;15.40;99.90;;;;;;4987707;28;20051;-71
2021/05/18 10:51:43;;;;;;;3.63;2.33;;;15.20;99.90;;;;;;4985524;28;20062;-71
2021/05/18 10:54:20;;;;;;;4.05;2.33;;;14.90;99.90;;;;;;4986642;28;20043;-71
2021/05/18 10:56:57;;;;;;;3.45;1.92;;;14.70;99.90;;;;;;4999900;28;20054;-71
2021/05/18 10:59:28;;;;;;;3.05;1.95;;;14.40;99.90;;;;;;4988744;28;20056;-71
2021/05/18 11:02:14;;;;;;;2.80;1.75;;;14.20;99.90;;;;;;4988886;28;20156;-71
2021/05/18 11:04:50;;;;;;;1.65;1.40;;;14.00;99.90;;;;;;4988591;28;20382;-71
2021/05/18 11:07:22;;;;;;;3.00;2.15;;;14.00;99.90;;;;;;4984439;28;20395;-71
2021/05/18 11:09:53;;;;;;;3.67;2.20;;;14.20;99.90;;;;;;4987163;28;20053;-71
2021/05/18 11:12:22;;;;;;;3.42;2.10;;;14.40;99.90;;;;;;4986383;28;20051;-72
2021/05/18 11:15:02;;;;;;;4.53;2.45;;;14.70;99.90;;;;;;4985311;28;20050;-71
2021/05/18 11:17:37;;;;;;;2.95;2.40;;;14.90;99.90;;;;;;4987714;28;20057;-71
2021/05/18 11:20:08;;;;;;;2.75;2.03;;;15.00;99.90;;;;;;4990548;28;20058;-71
2021/05/18 11:26:04;;;;;;;2.67;1.63;;;15.00;99.90;;;;;;4985410;28;20097;-71
2021/05/18 11:28:36;;;;;;;1.88;1.48;;;15.20;99.90;;;;;;4999770;28;20308;-71
2021/05/18 11:31:23;;;;;;;2.38;1.58;;;15.50;99.90;;;;;;4986739;28;20053;-71
2021/05/18 11:33:57;;;;;;;3.80;1.58;;;15.70;99.90;;;;;;4987621;28;20545;-71
2021/05/18 11:36:29;;;;;;;2.10;1.50;;;15.80;99.90;;;;;;4983941;28;20038;-72
2021/05/18 11:39:02;;;;;;;1.98;1.35;;;15.80;99.90;;;;;;4985074;28;20048;-71
2021/05/18 11:41:31;;;;;;;2.03;1.30;;;15.90;99.90;;;;;;4985964;28;20058;-71
2021/05/18 11:44:01;;;;;;;1.42;1.17;;;16.00;99.90;;;;;;4988176;28;20986;-71
2021/05/18 11:46:30;;;;;;;1.25;1.13;;;16.00;99.90;;;;;;4983073;28;20157;-71
2021/05/18 11:49:08;;;;;;;2.35;1.30;;;16.10;99.90;;;;;;4985849;28;20097;-71
2021/05/18 11:51:43;;;;;;;1.25;1.15;;;16.10;99.90;;;;;;4984019;28;20050;-72
2021/05/18 11:54:28;;;;;;;1.27;1.10;;;16.20;98.90;;;;;;4985200;28;20413;-71
2021/05/18 11:56:57;;;;;;;1.98;1.00;;;16.30;99.90;;;;;;4982395;28;20048;-71
2021/05/18 11:59:26;;;;;;;2.65;1.17;;;16.40;99.80;;;;;;4986125;28;20748;-71
2021/05/18 12:01:58;;;;;;;1.98;1.40;;;16.50;99.90;;;;;;4984283;28;20081;-71
2021/05/18 12:04:26;;;;;;;1.73;1.17;;;16.60;99.90;;;;;;4984086;28;20093;-70
2021/05/18 12:07:03;;;;;;;3.15;1.20;;;16.60;99.90;;;;;;4983219;28;20070;-71
2021/05/18 12:09:32;;;;;;;1.77;1.15;;;16.70;98.40;;;;;;4988120;28;20057;-71
2021/05/18 12:12:16;;;;;;;2.35;1.40;;;16.70;99.90;;;;;;4986054;28;20395;-71
2021/05/18 12:14:44;;;;;;;2.55;1.50;;;16.70;98.70;;;;;;4985556;28;20039;-71
2021/05/18 12:17:12;;;;;;;2.53;1.52;;;16.60;99.90;;;;;;4986563;28;20043;-71
2021/05/18 12:19:42;;;;;;;2.20;1.60;;;16.50;99.60;;;;;;4988021;28;20045;-71
2021/05/18 12:22:09;;;;;;;1.57;1.30;;;16.40;99.90;;;;;;4987368;28;20054;-71
2021/05/18 12:24:43;;;;;;;3.15;1.50;;;16.40;99.90;;;;;;4985293;28;20458;-71
2021/05/18 12:27:11;;;;;;;1.60;1.50;;;16.50;99.80;;;;;;4987389;28;20046;-71
2021/05/18 12:29:59;;;;;;;2.08;1.75;;;16.60;99.90;;;;;;5014216;28;20046;-71
2021/05/18 12:32:33;;;;;;;1.55;1.38;;;16.60;99.90;;;;;;4986883;28;20046;-72
2021/05/18 12:35:04;;;;;;;2.15;1.55;;;16.70;99.90;;;;;;4990016;28;20168;-71
2021/05/18 12:37:32;;;;;;;1.83;1.30;;;16.70;98.70;;;;;;4989986;28;20462;-72
2021/05/18 12:40:04;;;;;;;2.30;1.58;;;16.80;99.90;;;;;;5021257;28;20350;-71
2021/05/18 12:42:31;;;;;;;2.55;1.30;;;16.80;99.90;;;;;;4992215;28;20188;-72
2021/05/18 12:45:01;;;;;;;2.60;1.30;;;16.90;99.90;;;;;;4996225;28;20046;-72
2021/05/18 12:47:37;;;;;;;2.22;1.45;;;17.10;99.90;;;;;;4990575;28;20134;-71
2021/05/18 12:50:09;;;;;;;3.22;1.70;;;17.10;99.80;;;;;;4987620;28;20066;-71
2021/05/18 12:52:39;;;;;;;2.78;1.70;;;17.20;99.70;;;;;;4990978;28;20120;-71
2021/05/18 12:55:26;;;;;;;1.88;1.20;;;17.20;99.90;;;;;;4985829;28;20072;-71
2021/05/18 12:58:05;;;;;;;2.63;1.55;;;17.30;99.90;;;;;;4985578;28;20050;-71
2021/05/18 13:00:37;;;;;;;3.00;1.60;;;17.30;99.30;;;;;;4985643;28;20056;-71
2021/05/18 13:03:19;;;;;;;1.85;1.35;;;17.20;98.00;;;;;;4989707;28;20062;-71
2021/05/18 13:05:49;;;;;;;3.30;1.25;;;17.10;97.90;;;;;;4985840;28;20137;-72
2021/05/18 13:08:19;;;;;;;1.27;1.08;;;17.20;99.90;;;;;;4985308;28;20074;-72
2021/05/18 13:10:52;;;;;;;3.22;1.63;;;17.30;97.60;;;;;;4985398;28;20084;-72
2021/05/18 13:13:21;;;;;;;1.80;1.50;;;17.30;98.00;;;;;;4987699;28;20133;-71
2021/05/18 13:15:48;;;;;;;1.55;1.17;;;17.30;98.40;;;;;;4986547;28;20038;-72
2021/05/18 13:18:16;;;;;;;2.35;1.20;;;17.20;98.20;;;;;;5004894;28;20538;-72
2021/05/18 13:20:55;;;;;;;2.05;1.20;;;17.20;98.20;;;;;;4994474;28;20455;-71
2021/05/18 13:23:34;;;;;;;1.55;1.02;;;17.10;96.70;;;;;;4990799;28;20129;-72
2021/05/18 13:28:47;;;;;;;1.92;0.90;;;17.10;97.60;;;;;;4985293;28;20050;-71
2021/05/18 13:31:15;;;;;;;1.27;0.90;;;17.00;97.90;;;;;;4984021;28;20050;-71
2021/05/18 13:33:42;;;;;;;1.55;1.00;;;16.90;97.90;;;;;;4986632;28;20301;-72
2021/05/18 13:36:09;;;;;;;1.42;1.00;;;16.90;97.90;;;;;;5000559;28;20373;-71
2021/05/18 13:38:36;;;;;;;1.17;0.83;;;16.90;98.10;;;;;;5018934;28;20490;-71
2021/05/18 13:41:04;;;;;;;1.05;0.70;;;17.10;98.00;;;;;;5003497;28;20324;-71
2021/05/18 13:43:33;;;;;;;0.95;0.80;;;17.20;97.20;;;;;;4989353;28;20062;-71
2021/05/18 13:46:00;;;;;;;1.33;0.80;;;17.20;97.50;;;;;;4987838;28;20553;-72
2021/05/18 13:48:27;;;;;;;1.42;0.90;;;17.30;97.40;;;;;;4988973;28;20062;-71
2021/05/18 13:50:54;;;;;;;2.00;0.90;;;17.30;96.40;;;;;;5002346;28;20054;-71
2021/05/18 13:53:37;;;;;;;1.02;0.77;;;17.50;97.70;;;;;;4988466;28;20053;-71
2021/05/18 13:56:04;;;;;;;0.80;0.73;;;17.50;97.10;;;;;;4985839;28;20486;-71
2021/05/18 13:58:31;;;;;;;2.30;0.90;;;17.50;97.20;;;;;;4990906;28;20109;-71
2021/05/18 14:00:58;;;;;;;1.52;0.70;;;17.60;97.50;;;;;;4990578;28;20142;-71
2021/05/18 14:03:25;;;;;;;0.70;0.70;;;17.60;96.80;;;;;;4991349;28;20046;-71
2021/05/18 14:05:52;;;;;;;1.13;0.65;;;17.50;97.30;;;;;;4990889;28;20054;-71
2021/05/18 14:08:35;;;;;;;1.13;0.50;;;17.40;98.00;;;;;;4991270;28;20054;-71
2021/05/18 14:11:29;;;;;;;1.33;0.70;;;17.30;97.00;;;;;;4991825;28;20046;-72
2021/05/18 14:13:56;;;;;;;1.17;0.65;;;17.20;95.60;;;;;;4995385;28;20057;-71
2021/05/18 14:16:23;;;;;;;1.02;0.60;;;17.00;97.10;;;;;;4989670;28;20097;-72
2021/05/18 14:18:57;;;;;;;0.70;0.70;;;16.90;97.10;;;;;;4996176;28;20050;-71
2021/05/18 14:21:26;;;;;;;1.55;0.65;;;16.90;96.90;;;;;;5007305;28;20305;-72
2021/05/18 14:24:18;;;;;;;1.13;0.50;;;17.10;96.80;;;;;;4997613;28;24472;-72
2021/05/18 14:26:46;;;;;;;0.60;0.60;;;17.20;97.60;;;;;;4989970;28;20115;-71
2021/05/18 14:29:14;;;;;;;1.70;0.63;;;17.40;97.50;;;;;;4989775;28;20129;-71
2021/05/18 14:31:41;;;;;;;2.78;0.60;;;17.50;97.30;;;;;;4992140;28;20456;-71
2021/05/18 14:34:08;;;;;;;1.13;0.50;;;17.60;97.40;;;;;;4992968;28;20050;-71
2021/05/18 14:36:36;;;;;;;1.33;0.50;;;17.60;97.80;;;;;;4991224;28;20088;-71
2021/05/18 14:39:06;;;;;;;2.42;0.77;;;17.60;97.30;;;;;;4992341;28;20348;-71
2021/05/18 14:44:25;;;;;;;1.35;0.45;;;17.70;96.40;;;;;;4991776;28;20129;-71
2021/05/18 14:55:01;;;;;;;0.40;0.40;;;17.90;97.00;;;;;;4990627;28;20046;-71
2021/05/18 14:57:31;;;;;;;1.20;0.50;;;18.00;97.10;;;;;;4995680;28;20054;-71
2021/05/18 14:59:58;;;;;;;0.57;0.40;;;18.00;97.10;;;;;;4990111;28;20069;-72
2021/05/18 15:02:26;;;;;;;1.77;0.60;;;18.10;96.60;;;;;;4991179;28;20375;-71
2021/05/18 15:04:53;;;;;;;1.67;0.40;;;18.10;96.90;;;;;;4988735;28;20050;-71
2021/05/18 15:07:20;;;;;;;2.30;0.60;;;18.20;96.00;;;;;;4987539;28;20050;-72
2021/05/18 15:09:51;;;;;;;0.88;0.40;;;18.10;96.00;;;;;;5010779;28;20054;-71
2021/05/18 15:12:18;;;;;;;1.08;0.40;;;18.10;95.20;;;;;;4991976;28;20050;-71
2021/05/18 15:14:46;;;;;;;0.50;0.40;;;18.10;94.80;;;;;;4991108;28;20378;-71
2021/05/18 15:17:13;;;;;;;1.33;0.40;;;18.20;96.30;;;;;;4989093;28;20136;-71
2021/05/18 15:19:41;;;;;;;0.40;0.30;;;18.30;96.30;;;;;;5007809;28;20052;-71
2021/05/18 15:22:09;;;;;;;0.20;0.20;;;18.50;96.70;;;;;;4990693;28;20657;-71
2021/05/18 15:24:36;;;;;;;0.85;0.40;;;18.60;95.10;;;;;;4988350;28;20325;-71
2021/05/18 15:27:05;;;;;;;1.27;0.50;;;18.60;95.50;;;;;;4987309;28;20441;-71
2021/05/18 15:29:32;;;;;;;0.95;0.45;;;18.70;94.60;;;;;;4987269;28;20056;-71
2021/05/18 15:31:59;;;;;;;0.82;0.30;;;18.70;96.00;;;;;;4987370;28;20389;-72
2021/05/18 15:34:26;;;;;;;0.40;0.33;;;18.80;95.10;;;;;;4989421;28;20050;-71
2021/05/18 15:36:55;;;;;;;0.40;0.30;;;18.80;94.20;;;;;;5002112;28;20129;-71
2021/05/18 15:39:24;;;;;;;0.90;0.50;;;18.80;93.90;;;;;;5002274;28;20089;-71
2021/05/18 15:41:52;;;;;;;0.65;0.32;;;18.80;94.50;;;;;;4988391;28;20123;-71
2021/05/18 15:44:20;;;;;;;0.25;0.25;;;18.80;94.90;;;;;;4986749;28;20068;-71
2021/05/18 15:46:47;;;;;;;0.68;0.32;;;18.80;94.00;;;;;;4986584;28;20509;-71
2021/05/18 15:49:14;;;;;;;1.27;0.50;;;18.90;95.00;;;;;;5002315;28;20046;-71
2021/05/18 15:51:41;;;;;;;0.20;0.20;;;18.90;94.20;;;;;;4988298;28;20157;-71
2021/05/18 15:54:08;;;;;;;0.22;0.22;;;19.10;95.30;;;;;;4990260;28;20106;-72
2021/05/18 15:56:36;;;;;;;0.28;0.20;;;19.20;94.80;;;;;;4986011;28;24768;-71
2021/05/18 15:59:04;;;;;;;1.55;0.30;;;19.30;91.70;;;;;;4986018;28;20046;-71
2021/05/18 16:01:37;;;;;;;1.27;0.40;;;19.20;90.60;;;;;;4985634;28;20102;-72
2021/05/18 16:04:08;;;;;;;0.55;0.32;;;19.20;93.00;;;;;;4984601;28;20050;-71
2021/05/18 16:06:39;;;;;;;0.25;0.25;;;19.40;95.00;;;;;;4983780;28;20505;-72
2021/05/18 16:09:11;;;;;;;0.50;0.30;;;19.60;93.40;;;;;;4987477;28;20050;-71
2021/05/18 16:11:39;;;;;;;0.30;0.30;;;19.60;95.00;;;;;;4999577;28;20054;-71
2021/05/18 16:14:07;;;;;;;;;;;19.50;93.00;;;;;;4985898;28;20489;-71
2021/05/18 16:16:34;;;;;;;0.30;0.30;;;19.40;92.00;;;;;;4982670;28;19952;-71
2021/05/18 16:19:02;;;;;;;;;;;19.50;95.80;;;;;;4984739;28;20046;-71
2021/05/18 16:21:29;;;;;;;2.15;0.40;;;19.70;95.40;;;;;;4984997;28;19933;-71
2021/05/18 16:23:58;;;;;;;0.90;0.30;;;19.80;96.50;;;;;;4983635;28;20065;-71
2021/05/18 16:26:27;;;;;;;1.45;0.40;;;19.70;96.10;;;;;;4982963;28;20558;-71
2021/05/18 16:28:55;;;;;;;1.05;0.40;;;19.80;96.00;;;;;;4987807;28;20046;-71
2021/05/18 16:31:23;;;;;;;0.73;0.30;;;20.10;97.60;;;;;;4988830;28;20111;-71
2021/05/18 16:33:51;;;;;;;0.93;0.40;;;20.50;98.60;;;;;;5017257;28;20649;-71
2021/05/18 16:36:18;;;;;;;1.13;0.38;;;21.00;97.70;;;;;;4984925;28;20101;-71
2021/05/18 16:38:48;;;;;;;0.73;0.40;;;21.20;98.30;;;;;;4986972;28;20442;-71
2021/05/18 16:41:31;;;;;;;1.25;0.40;;;21.40;99.20;;;;;;4986653;28;20057;-71
2021/05/18 16:43:58;;;;;;;1.90;0.38;;;21.80;99.90;;;;;;4985881;28;20120;-71
2021/05/18 16:46:25;;;;;;;0.47;0.30;;;22.00;99.10;;;;;;4986132;28;20050;-71
2021/05/18 16:48:52;;;;;;;0.70;0.47;;;21.80;98.20;;;;;;4986359;28;20068;-71
2021/05/18 16:51:19;;;;;;;1.02;0.52;;;21.60;98.80;;;;;;5001228;28;20161;-72
2021/05/18 16:53:50;;;;;;;1.92;0.50;;;21.70;99.60;;;;;;4987423;28;20047;-71
2021/05/18 16:56:17;;;;;;;1.80;0.40;;;22.00;99.90;;;;;;5015713;28;20058;-71
2021/05/18 16:58:44;;;;;;;0.65;0.30;;;22.20;99.90;;;;;;4985727;28;20494;-71
2021/05/18 17:01:12;;;;;;;0.80;0.45;;;22.30;99.90;;;;;;4987799;28;20046;-71
2021/05/18 17:03:59;;;;;;;1.20;0.43;;;22.30;99.90;;;;;;5009803;28;20055;-71
2021/05/18 17:06:26;;;;;;;0.83;0.37;;;22.20;99.90;;;;;;5012843;28;20457;-71
2021/05/18 17:08:53;;;;;;;0.47;0.40;;;22.10;99.90;;;;;;4984215;28;20057;-71
2021/05/18 17:11:20;;;;;;;0.65;0.30;;;21.90;99.90;;;;;;5014792;28;20054;-71
2021/05/18 17:13:48;;;;;;;0.57;0.40;;;21.70;99.90;;;;;;4983638;28;20136;-71
2021/05/18 17:16:15;;;;;;;0.65;0.40;;;21.50;99.90;;;;;;4984633;28;20069;-71
2021/05/18 17:18:42;;;;;;;1.07;0.40;;;21.30;99.90;;;;;;5001396;28;20473;-71
2021/05/18 17:21:09;;;;;;;1.07;0.30;;;21.10;99.40;;;;;;5017133;28;20061;-71
2021/05/18 17:23:38;;;;;;;0.82;0.30;;;20.90;99.20;;;;;;5002750;28;20049;-71
2021/05/18 17:26:10;;;;;;;1.70;0.50;;;20.50;97.80;;;;;;4985846;28;20050;-71
2021/05/18 17:28:40;;;;;;;2.05;0.30;;;20.20;97.30;;;;;;4987260;28;20116;-71
2021/05/18 17:31:08;;;;;;;0.60;0.30;;;19.90;97.00;;;;;;4985465;28;20566;-71
2021/05/18 17:33:36;;;;;;;2.90;0.50;;;19.80;96.60;;;;;;4987789;28;20486;-71
2021/05/18 17:36:03;;;;;;;1.08;0.40;;;19.70;96.40;;;;;;4989035;28;20068;-71
2021/05/18 17:38:30;;;;;;;0.68;0.40;;;19.60;95.70;;;;;;4990870;28;20069;-71
2021/05/18 17:40:58;;;;;;;0.80;0.40;;;19.40;95.20;;;;;;4988767;28;20184;-71
2021/05/18 17:43:26;;;;;;;0.52;0.30;;;19.30;94.70;;;;;;4990970;28;20502;-72
2021/05/18 17:45:53;;;;;;;;;;;19.10;94.70;;;;;;4989161;28;20054;-71
2021/05/18 17:48:20;;;;;;;1.00;0.25;;;18.90;92.50;;;;;;4990994;28;19925;-71
2021/05/18 17:50:47;;;;;;;0.20;0.20;;;18.80;94.30;;;;;;4989632;28;20062;-71
2021/05/18 17:53:14;;;;;;;1.00;0.30;;;18.70;93.80;;;;;;4987100;28;20072;-71
2021/05/18 17:55:41;;;;;;;1.80;0.50;;;18.60;93.80;;;;;;4989019;28;20049;-71
2021/05/18 17:58:10;;;;;;;1.25;0.45;;;18.50;93.60;;;;;;4992219;28;20054;-72
2021/05/18 18:00:38;;;;;;;1.17;0.40;;;18.40;93.40;;;;;;4992222;28;20045;-70
2021/05/18 18:03:05;;;;;;;0.50;0.30;;;18.40;93.50;;;;;;5005939;28;20105;-71
2021/05/18 18:05:32;;;;;;;2.13;0.43;;;18.30;93.30;;;;;;5017759;28;20046;-72
2021/05/18 18:07:59;;;;;;;0.28;0.28;;;18.10;92.70;;;;;;4989262;28;20465;-72
2021/05/18 18:10:27;;;;;;;0.77;0.40;;;18.00;93.00;;;;;;4986022;28;20082;-71
2021/05/18 18:12:56;;;;;;;1.48;0.40;;;18.00;92.70;;;;;;4988776;28;20073;-71
2021/05/18 18:15:24;;;;;;;0.57;0.40;;;17.90;92.30;;;;;;4989817;28;20053;-71
2021/05/18 18:17:52;;;;;;;1.73;0.40;;;17.80;92.30;;;;;;4992731;28;20494;-71